Time;durP1;ratioP1;P1;durP2;ratioP2;P2;SDS_P1;SDS_P2;PMS_P1;PMS_P2;Temp;Humidity;BMP_temperature;BMP_pressure;BME280_temperature;BME280_humidity;BME280_pressure;Samples;Min_cycle;Max_cycle;Signal;HPM_P1;HPM_P2
2022/02/10 00:06:17;;;;;;;3.2;1.65;;;;;;;-0.62;58.68262;95937.45;;;;
2022/02/10 00:07:48;;;;;;;3.2;1.65;;;;;;;-0.62;58.68262;95937.45;;;;
2022/02/10 00:14:23;;;;;;;1.8;1.5;;;;;;;-0.58;58.85645;95926.79;;;;
2022/02/10 00:16:07;;;;;;;1.8;1.5;;;;;;;-0.58;58.85645;95926.79;;;;
2022/02/10 00:17:25;;;;;;;1.8;1.5;;;;;;;-0.58;58.85645;95926.79;;;;
2022/02/10 00:18:37;;;;;;;1.8;1.5;;;;;;;-0.58;58.85645;95926.79;;;;
2022/02/10 00:20:02;;;;;;;1.8;1.5;;;;;;;-0.58;58.85645;95926.79;;;;
2022/02/10 00:21:08;;;;;;;1.8;1.5;;;;;;;-0.58;58.85645;95926.79;;;;
2022/02/10 00:22:14;;;;;;;1.8;1.5;;;;;;;-0.58;58.85645;95926.79;;;;
2022/02/10 00:23:29;;;;;;;1.8;1.5;;;;;;;-0.58;58.85645;95926.79;;;;
2022/02/10 00:24:51;;;;;;;2.45;1.75;;;;;;;-0.51;58.86621;95921.32;;;;
2022/02/10 00:34:12;;;;;;;2.45;1.75;;;;;;;-0.51;58.86621;95921.32;;;;
2022/02/10 00:35:20;;;;;;;2.2;1.6;;;;;;;-0.6;58.97852;95920;;;;
2022/02/10 00:36:25;;;;;;;2.2;1.6;;;;;;;-0.6;58.97852;95920;;;;
2022/02/10 00:37:36;;;;;;;2.2;1.6;;;;;;;-0.6;58.97852;95920;;;;
2022/02/10 00:38:41;;;;;;;2.2;1.6;;;;;;;-0.6;58.97852;95920;;;;
2022/02/10 00:40:04;;;;;;;2.2;1.6;;;;;;;-0.6;58.97852;95920;;;;
2022/02/10 00:41:05;;;;;;;2.2;1.6;;;;;;;-0.6;58.97852;95920;;;;
2022/02/10 00:42:06;;;;;;;2.2;1.6;;;;;;;-0.6;58.97852;95920;;;;
2022/02/10 00:43:07;;;;;;;2.2;1.6;;;;;;;-0.6;58.97852;95920;;;;
2022/02/10 00:44:07;;;;;;;2.2;1.6;;;;;;;-0.6;58.97852;95920;;;;
2022/02/10 00:45:08;;;;;;;2.1;1.7;;;;;;;-0.6;59.18945;95916.87;;;;
2022/02/10 00:46:08;;;;;;;2.1;1.7;;;;;;;-0.6;59.18945;95916.87;;;;
2022/02/10 00:47:09;;;;;;;2.1;1.7;;;;;;;-0.6;59.18945;95916.87;;;;
2022/02/10 00:48:11;;;;;;;2.1;1.7;;;;;;;-0.6;59.18945;95916.87;;;;
2022/02/10 00:49:11;;;;;;;2.1;1.7;;;;;;;-0.6;59.18945;95916.87;;;;
2022/02/10 00:50:12;;;;;;;2.1;1.7;;;;;;;-0.6;59.18945;95916.87;;;;
2022/02/10 00:51:13;;;;;;;2.1;1.7;;;;;;;-0.6;59.18945;95916.87;;;;
2022/02/10 00:52:14;;;;;;;2.1;1.7;;;;;;;-0.6;59.18945;95916.87;;;;
2022/02/10 00:53:18;;;;;;;2.1;1.7;;;;;;;-0.6;59.18945;95916.87;;;;
2022/02/10 00:54:23;;;;;;;2.1;1.7;;;;;;;-0.6;59.18945;95916.87;;;;
2022/02/10 00:55:27;;;;;;;2.1;1.7;;;;;;;-0.6;59.18945;95916.87;;;;
2022/02/10 00:56:28;;;;;;;2.4;1.95;;;;;;;-0.64;59.33984;95913.75;;;;
2022/02/10 00:57:29;;;;;;;2.4;1.95;;;;;;;-0.64;59.33984;95913.75;;;;
2022/02/10 00:58:33;;;;;;;2.4;1.95;;;;;;;-0.64;59.33984;95913.75;;;;
2022/02/10 00:59:45;;;;;;;2.4;1.95;;;;;;;-0.64;59.33984;95913.75;;;;
2022/02/10 01:10:51;;;;;;;2.2;1.65;;;;;;;-0.63;59.50879;95920.31;;;;
2022/02/10 01:12:30;;;;;;;2.2;1.65;;;;;;;-0.63;59.50879;95920.31;;;;
2022/02/10 01:13:46;;;;;;;2.2;1.65;;;;;;;-0.63;59.50879;95920.31;;;;
2022/02/10 01:30:26;;;;;;;2.3;1.8;;;;;;;-0.73;59.87207;95905.8;;;;
2022/02/10 01:31:26;;;;;;;2.3;1.8;;;;;;;-0.73;59.87207;95905.8;;;;
2022/02/10 01:32:27;;;;;;;2.3;1.8;;;;;;;-0.73;59.87207;95905.8;;;;
2022/02/10 01:33:30;;;;;;;2.3;1.8;;;;;;;-0.73;59.87207;95905.8;;;;
2022/02/10 01:34:33;;;;;;;2.3;1.8;;;;;;;-0.73;59.87207;95905.8;;;;
2022/02/10 01:35:33;;;;;;;2.3;1.8;;;;;;;-0.73;59.87207;95905.8;;;;
2022/02/10 01:36:34;;;;;;;2.3;1.8;;;;;;;-0.73;59.87207;95905.8;;;;
2022/02/10 01:37:35;;;;;;;2.3;1.8;;;;;;;-0.73;59.87207;95905.8;;;;
2022/02/10 01:38:36;;;;;;;3.5;1.7;;;;;;;-0.75;60.0459;95910.91;;;;
2022/02/10 01:39:43;;;;;;;3.5;1.7;;;;;;;-0.75;60.0459;95910.91;;;;
2022/02/10 01:41:13;;;;;;;3.5;1.7;;;;;;;-0.75;60.0459;95910.91;;;;
2022/02/10 01:58:05;;;;;;;1.9;1.7;;;;;;;-0.77;60.22266;95901.78;;;;
2022/02/10 02:04:21;;;;;;;2.25;1.55;;;;;;;-0.83;60.43262;95897.6;;;;
2022/02/10 02:05:30;;;;;;;2.25;1.55;;;;;;;-0.83;60.43262;95897.6;;;;
2022/02/10 02:06:40;;;;;;;2.25;1.55;;;;;;;-0.83;60.43262;95897.6;;;;
2022/02/10 02:07:41;;;;;;;2.25;1.55;;;;;;;-0.83;60.43262;95897.6;;;;
2022/02/10 02:08:42;;;;;;;2.25;1.55;;;;;;;-0.83;60.43262;95897.6;;;;
2022/02/10 02:09:43;;;;;;;2.25;1.55;;;;;;;-0.83;60.43262;95897.6;;;;
2022/02/10 02:10:43;;;;;;;2.05;1.5;;;;;;;-0.89;60.52832;95880.54;;;;
2022/02/10 02:11:44;;;;;;;2.05;1.5;;;;;;;-0.89;60.52832;95880.54;;;;
2022/02/10 02:12:46;;;;;;;2.05;1.5;;;;;;;-0.89;60.52832;95880.54;;;;
2022/02/10 02:13:48;;;;;;;2.05;1.5;;;;;;;-0.89;60.52832;95880.54;;;;
2022/02/10 02:14:48;;;;;;;2.05;1.5;;;;;;;-0.89;60.52832;95880.54;;;;
2022/02/10 02:15:49;;;;;;;2.05;1.5;;;;;;;-0.89;60.52832;95880.54;;;;
2022/02/10 02:16:50;;;;;;;2.05;1.5;;;;;;;-0.89;60.52832;95880.54;;;;
2022/02/10 02:17:53;;;;;;;2.05;1.5;;;;;;;-0.89;60.52832;95880.54;;;;
2022/02/10 02:18:54;;;;;;;2.05;1.5;;;;;;;-0.89;60.52832;95880.54;;;;
2022/02/10 02:19:54;;;;;;;2.05;1.5;;;;;;;-0.89;60.52832;95880.54;;;;
2022/02/10 02:20:55;;;;;;;2.05;1.5;;;;;;;-0.89;60.52832;95880.54;;;;
2022/02/10 02:21:57;;;;;;;1.5;1.35;;;;;;;-0.95;60.66699;95874.45;;;;
2022/02/10 02:22:58;;;;;;;1.5;1.35;;;;;;;-0.95;60.66699;95874.45;;;;
2022/02/10 02:23:59;;;;;;;1.5;1.35;;;;;;;-0.95;60.66699;95874.45;;;;
2022/02/10 02:24:59;;;;;;;1.5;1.35;;;;;;;-0.95;60.66699;95874.45;;;;
2022/02/10 02:26:05;;;;;;;1.5;1.35;;;;;;;-0.95;60.66699;95874.45;;;;
2022/02/10 02:27:08;;;;;;;1.5;1.35;;;;;;;-0.95;60.66699;95874.45;;;;
2022/02/10 02:28:09;;;;;;;1.5;1.35;;;;;;;-0.95;60.66699;95874.45;;;;
2022/02/10 02:29:13;;;;;;;1.5;1.35;;;;;;;-0.95;60.66699;95874.45;;;;
2022/02/10 02:30:14;;;;;;;1.5;1.35;;;;;;;-0.95;60.66699;95874.45;;;;
2022/02/10 02:31:22;;;;;;;1.5;1.35;;;;;;;-0.95;60.66699;95874.45;;;;
2022/02/10 02:32:31;;;;;;;3.45;1.8;;;;;;;-0.99;60.8916;95862.09;;;;
2022/02/10 02:33:59;;;;;;;3.45;1.8;;;;;;;-0.99;60.8916;95862.09;;;;
2022/02/10 02:35:21;;;;;;;3.45;1.8;;;;;;;-0.99;60.8916;95862.09;;;;
2022/02/10 02:37:03;;;;;;;3.45;1.8;;;;;;;-0.99;60.8916;95862.09;;;;
2022/02/10 02:38:19;;;;;;;3.45;1.8;;;;;;;-0.99;60.8916;95862.09;;;;
2022/02/10 02:39:57;;;;;;;3.45;1.8;;;;;;;-0.99;60.8916;95862.09;;;;
2022/02/10 03:07:02;;;;;;;1.95;1.25;;;;;;;-0.49;61.15137;95833.17;;;;
2022/02/10 03:08:12;;;;;;;1.95;1.25;;;;;;;-0.49;61.15137;95833.17;;;;
2022/02/10 03:09:20;;;;;;;1.95;1.25;;;;;;;-0.49;61.15137;95833.17;;;;
2022/02/10 03:10:53;;;;;;;1.95;1.25;;;;;;;-0.49;61.15137;95833.17;;;;
2022/02/10 03:11:53;;;;;;;1.95;1.25;;;;;;;-0.49;61.15137;95833.17;;;;
2022/02/10 03:12:54;;;;;;;1.95;1.25;;;;;;;-0.49;61.15137;95833.17;;;;
2022/02/10 03:13:59;;;;;;;1.95;1.25;;;;;;;-0.49;61.15137;95833.17;;;;
2022/02/10 03:15:02;;;;;;;1.6;1.4;;;;;;;-0.37;61.08496;95818.16;;;;
2022/02/10 03:16:24;;;;;;;1.6;1.4;;;;;;;-0.37;61.08496;95818.16;;;;
2022/02/10 03:17:42;;;;;;;1.6;1.4;;;;;;;-0.37;61.08496;95818.16;;;;
2022/02/10 03:18:50;;;;;;;1.6;1.4;;;;;;;-0.37;61.08496;95818.16;;;;
2022/02/10 03:20:00;;;;;;;1.6;1.4;;;;;;;-0.37;61.08496;95818.16;;;;
2022/02/10 03:21:21;;;;;;;1.6;1.4;;;;;;;-0.37;61.08496;95818.16;;;;
2022/02/10 03:22:38;;;;;;;1.6;1.4;;;;;;;-0.37;61.08496;95818.16;;;;
2022/02/10 04:00:33;;;;;;;1.9;1.15;;;;;;;-0.85;61.56934;95811.67;;;;
2022/02/10 04:01:55;;;;;;;1.9;1.15;;;;;;;-0.85;61.56934;95811.67;;;;
2022/02/10 04:03:12;;;;;;;1.9;1.15;;;;;;;-0.85;61.56934;95811.67;;;;
2022/02/10 04:04:43;;;;;;;1.9;1.15;;;;;;;-0.85;61.56934;95811.67;;;;
2022/02/10 04:10:04;;;;;;;4.199999;1.6;;;;;;;-0.91;61.56055;95821.98;;;;
2022/02/10 04:11:25;;;;;;;4.199999;1.6;;;;;;;-0.91;61.56055;95821.98;;;;
2022/02/10 04:13:04;;;;;;;4.199999;1.6;;;;;;;-0.91;61.56055;95821.98;;;;
2022/02/10 04:14:13;;;;;;;4.199999;1.6;;;;;;;-0.91;61.56055;95821.98;;;;
2022/02/10 04:15:24;;;;;;;4.199999;1.6;;;;;;;-0.91;61.56055;95821.98;;;;
2022/02/10 04:16:29;;;;;;;4.199999;1.6;;;;;;;-0.91;61.56055;95821.98;;;;
2022/02/10 04:17:47;;;;;;;4.199999;1.6;;;;;;;-0.91;61.56055;95821.98;;;;
2022/02/10 04:19:30;;;;;;;3.15;1.7;;;;;;;-1.07;61.64355;95800.58;;;;
2022/02/10 04:20:48;;;;;;;3.15;1.7;;;;;;;-1.07;61.64355;95800.58;;;;
2022/02/10 04:21:57;;;;;;;3.15;1.7;;;;;;;-1.07;61.64355;95800.58;;;;
2022/02/10 04:23:08;;;;;;;3.15;1.7;;;;;;;-1.07;61.64355;95800.58;;;;
2022/02/10 04:25:02;;;;;;;3.15;1.7;;;;;;;-1.07;61.64355;95800.58;;;;
2022/02/10 04:26:17;;;;;;;3.15;1.7;;;;;;;-1.07;61.64355;95800.58;;;;
2022/02/10 04:27:30;;;;;;;3.15;1.7;;;;;;;-1.07;61.64355;95800.58;;;;
2022/02/10 04:28:46;;;;;;;3.15;1.7;;;;;;;-1.07;61.64355;95800.58;;;;
2022/02/10 04:30:12;;;;;;;3;1.7;;;;;;;-1.23;61.89063;95801.34;;;;
2022/02/10 04:42:53;;;;;;;7.5;3.25;;;;;;;-1.33;62.08398;95794.45;;;;
2022/02/10 04:44:30;;;;;;;7.5;3.25;;;;;;;-1.33;62.08398;95794.45;;;;
2022/02/10 04:56:10;;;;;;;4.650001;2.5;;;;;;;-1.38;62.28711;95784.3;;;;
2022/02/10 04:57:36;;;;;;;4.650001;2.5;;;;;;;-1.38;62.28711;95784.3;;;;
2022/02/10 04:58:51;;;;;;;4.650001;2.5;;;;;;;-1.38;62.28711;95784.3;;;;
2022/02/10 05:00:09;;;;;;;4.650001;2.5;;;;;;;-1.38;62.28711;95784.3;;;;
2022/02/10 05:01:24;;;;;;;2.5;1.65;;;;;;;-1.33;62.43945;95778.56;;;;
2022/02/10 05:02:55;;;;;;;2.5;1.65;;;;;;;-1.33;62.43945;95778.56;;;;
2022/02/10 05:04:25;;;;;;;2.5;1.65;;;;;;;-1.33;62.43945;95778.56;;;;
2022/02/10 05:06:02;;;;;;;2.5;1.65;;;;;;;-1.33;62.43945;95778.56;;;;
2022/02/10 05:13:10;;;;;;;2;1.4;;;;;;;-1.21;62.55273;95777.34;;;;
2022/02/10 05:19:46;;;;;;;2;1.4;;;;;;;-1.21;62.55273;95777.34;;;;
2022/02/10 05:21:05;;;;;;;2;1.4;;;;;;;-1.21;62.55273;95777.34;;;;
2022/02/10 05:22:20;;;;;;;2;1.4;;;;;;;-1.21;62.55273;95777.34;;;;
2022/02/10 05:23:28;;;;;;;1.6;1.3;;;;;;;-1.14;62.57324;95786.35;;;;
2022/02/10 05:24:44;;;;;;;1.6;1.3;;;;;;;-1.14;62.57324;95786.35;;;;
2022/02/10 05:32:25;;;;;;;1.6;1.3;;;;;;;-1.14;62.57324;95786.35;;;;
2022/02/10 05:33:36;;;;;;;2.05;1.3;;;;;;;-1.14;62.63574;95778.81;;;;
2022/02/10 05:34:41;;;;;;;2.05;1.3;;;;;;;-1.14;62.63574;95778.81;;;;
2022/02/10 05:35:45;;;;;;;2.05;1.3;;;;;;;-1.14;62.63574;95778.81;;;;
2022/02/10 05:36:47;;;;;;;2.05;1.3;;;;;;;-1.14;62.63574;95778.81;;;;
2022/02/10 05:37:51;;;;;;;2.05;1.3;;;;;;;-1.14;62.63574;95778.81;;;;
2022/02/10 05:39:00;;;;;;;2.05;1.3;;;;;;;-1.14;62.63574;95778.81;;;;
2022/02/10 05:40:06;;;;;;;2.05;1.3;;;;;;;-1.14;62.63574;95778.81;;;;
2022/02/10 05:42:38;;;;;;;2.05;1.3;;;;;;;-1.14;62.63574;95778.81;;;;
2022/02/10 05:43:46;;;;;;;2.05;1.3;;;;;;;-1.14;62.63574;95778.81;;;;
2022/02/10 05:44:54;;;;;;;1.9;1.3;;;;;;;-1.15;62.60254;95778.07;;;;
2022/02/10 05:46:06;;;;;;;1.9;1.3;;;;;;;-1.15;62.60254;95778.07;;;;
2022/02/10 05:57:41;;;;;;;2.1;1.3;;;;;;;-1.24;62.58008;95781.53;;;;
2022/02/10 05:59:11;;;;;;;2.1;1.3;;;;;;;-1.24;62.58008;95781.53;;;;
2022/02/10 06:01:04;;;;;;;2.1;1.3;;;;;;;-1.24;62.58008;95781.53;;;;
2022/02/10 06:02:31;;;;;;;2.1;1.3;;;;;;;-1.24;62.58008;95781.53;;;;
2022/02/10 06:50:50;;;;;;;1.75;1.55;;;;;;;-1.72;63.36426;95791.65;;;;
2022/02/10 06:51:55;;;;;;;1.75;1.55;;;;;;;-1.72;63.36426;95791.65;;;;
2022/02/10 06:53:11;;;;;;;1.75;1.55;;;;;;;-1.72;63.36426;95791.65;;;;
2022/02/10 06:54:21;;;;;;;1.75;1.55;;;;;;;-1.72;63.36426;95791.65;;;;
2022/02/10 06:55:40;;;;;;;1.75;1.55;;;;;;;-1.72;63.36426;95791.65;;;;
2022/02/10 07:07:32;;;;;;;2.2;1.6;;;;;;;-1.58;63.36328;95804.46;;;;
2022/02/10 07:08:52;;;;;;;2.2;1.6;;;;;;;-1.58;63.36328;95804.46;;;;
2022/02/10 07:10:13;;;;;;;2.4;1.75;;;;;;;-1.38;63.25879;95813.43;;;;
2022/02/10 07:11:30;;;;;;;2.4;1.75;;;;;;;-1.38;63.25879;95813.43;;;;
2022/02/10 07:45:29;;;;;;;2.35;1.9;;;;;;;-0.33;62.93262;95804.52;;;;
2022/02/10 07:57:08;;;;;;;4.749999;2.4;;;;;;;1.18;61.88477;95793.18;;;;
2022/02/10 07:58:26;;;;;;;4.749999;2.4;;;;;;;1.18;61.88477;95793.18;;;;
2022/02/10 07:59:44;;;;;;;4.749999;2.4;;;;;;;1.18;61.88477;95793.18;;;;
2022/02/10 08:04:23;;;;;;;4.749999;2.4;;;;;;;1.18;61.88477;95793.18;;;;
2022/02/10 08:51:47;;;;;;;3.25;2;;;;;;;22.47;42.0918;95763.14;;;;
2022/02/10 08:53:51;;;;;;;3.25;2;;;;;;;22.47;42.0918;95763.14;;;;
2022/02/10 08:55:21;;;;;;;3.25;2;;;;;;;22.47;42.0918;95763.14;;;;
2022/02/10 08:56:31;;;;;;;2.65;2.25;;;;;;;25.22;39.62402;95766.63;;;;
2022/02/10 08:57:47;;;;;;;2.65;2.25;;;;;;;25.22;39.62402;95766.63;;;;
2022/02/10 08:59:07;;;;;;;2.65;2.25;;;;;;;25.22;39.62402;95766.63;;;;
2022/02/10 09:01:09;;;;;;;2.65;2.25;;;;;;;25.22;39.62402;95766.63;;;;
2022/02/10 09:03:22;;;;;;;2.65;2.25;;;;;;;25.22;39.62402;95766.63;;;;
2022/02/10 09:04:28;;;;;;;2.65;2.25;;;;;;;25.22;39.62402;95766.63;;;;
2022/02/10 09:05:39;;;;;;;2.65;2.25;;;;;;;25.22;39.62402;95766.63;;;;
2022/02/10 09:06:57;;;;;;;2.65;2.25;;;;;;;25.22;39.62402;95766.63;;;;
2022/02/10 09:08:18;;;;;;;3.7;2.65;;;;;;;27.3;37.07813;95769.64;;;;
2022/02/10 09:10:02;;;;;;;3.7;2.65;;;;;;;27.3;37.07813;95769.64;;;;
2022/02/10 09:16:47;;;;;;;3.7;2.65;;;;;;;27.3;37.07813;95769.64;;;;
2022/02/10 09:18:28;;;;;;;4.45;2.65;;;;;;;28.16;35.06641;95764.06;;;;
2022/02/10 09:19:58;;;;;;;4.45;2.65;;;;;;;28.16;35.06641;95764.06;;;;
2022/02/10 09:21:31;;;;;;;4.45;2.65;;;;;;;28.16;35.06641;95764.06;;;;
2022/02/10 09:47:39;;;;;;;5.2;2.6;;;;;;;28.49;32.89258;95771.12;;;;
2022/02/10 09:50:26;;;;;;;5.75;2.8;;;;;;;29.12;32.125;95769.05;;;;
2022/02/10 09:52:25;;;;;;;5.15;2.55;;;;;;;25.19;34.00684;95764.48;;;;
2022/02/10 09:54:43;;;;;;;5.15;2.55;;;;;;;25.19;34.00684;95764.48;;;;
2022/02/10 09:55:56;;;;;;;5.15;2.55;;;;;;;25.19;34.00684;95764.48;;;;
2022/02/10 09:57:30;;;;;;;5.15;2.55;;;;;;;25.19;34.00684;95764.48;;;;
2022/02/10 09:58:40;;;;;;;5.15;2.55;;;;;;;25.19;34.00684;95764.48;;;;
2022/02/10 10:00:00;;;;;;;5.15;2.55;;;;;;;25.19;34.00684;95764.48;;;;
2022/02/10 10:01:12;;;;;;;4.25;2.65;;;;;;;26.75;31.14746;95767.35;;;;
2022/02/10 10:02:20;;;;;;;4.25;2.65;;;;;;;26.75;31.14746;95767.35;;;;
2022/02/10 10:03:27;;;;;;;4.25;2.65;;;;;;;26.75;31.14746;95767.35;;;;
2022/02/10 10:04:33;;;;;;;4.25;2.65;;;;;;;26.75;31.14746;95767.35;;;;
2022/02/10 10:05:39;;;;;;;4.25;2.65;;;;;;;26.75;31.14746;95767.35;;;;
2022/02/10 10:07:02;;;;;;;4.25;2.65;;;;;;;26.75;31.14746;95767.35;;;;
2022/02/10 10:08:25;;;;;;;4.25;2.65;;;;;;;26.75;31.14746;95767.35;;;;
2022/02/10 10:09:38;;;;;;;4.25;2.65;;;;;;;26.75;31.14746;95767.35;;;;
2022/02/10 10:10:52;;;;;;;4.25;2.65;;;;;;;26.75;31.14746;95767.35;;;;
2022/02/10 10:13:11;;;;;;;7.7;2.95;;;;;;;26.71;30.7959;95763.4;;;;
2022/02/10 10:14:16;;;;;;;7.7;2.95;;;;;;;26.71;30.7959;95763.4;;;;
2022/02/10 10:15:27;;;;;;;7.7;2.95;;;;;;;26.71;30.7959;95763.4;;;;
2022/02/10 10:16:42;;;;;;;7.7;2.95;;;;;;;26.71;30.7959;95763.4;;;;
2022/02/10 10:17:59;;;;;;;7.7;2.95;;;;;;;26.71;30.7959;95763.4;;;;
2022/02/10 10:19:13;;;;;;;7.7;2.95;;;;;;;26.71;30.7959;95763.4;;;;
2022/02/10 10:20:24;;;;;;;7.7;2.95;;;;;;;26.71;30.7959;95763.4;;;;
2022/02/10 10:21:29;;;;;;;7.7;2.95;;;;;;;26.71;30.7959;95763.4;;;;
2022/02/10 10:22:40;;;;;;;7.7;2.95;;;;;;;26.71;30.7959;95763.4;;;;
2022/02/10 10:23:52;;;;;;;7.7;2.95;;;;;;;26.71;30.7959;95763.4;;;;
2022/02/10 10:25:15;;;;;;;7.7;2.95;;;;;;;26.71;30.7959;95763.4;;;;
2022/02/10 10:48:41;;;;;;;4.35;2.95;;;;;;;32.48;25.8916;95743.72;;;;
2022/02/10 10:49:58;;;;;;;4.35;2.95;;;;;;;32.48;25.8916;95743.72;;;;
2022/02/10 10:51:08;;;;;;;4.35;2.95;;;;;;;32.48;25.8916;95743.72;;;;
2022/02/10 10:52:22;;;;;;;4.35;2.95;;;;;;;32.48;25.8916;95743.72;;;;
2022/02/10 10:53:32;;;;;;;4.35;2.95;;;;;;;32.48;25.8916;95743.72;;;;
2022/02/10 10:54:39;;;;;;;4.35;3.1;;;;;;;32.64;25.19336;95725.32;;;;
2022/02/10 10:55:47;;;;;;;4.35;3.1;;;;;;;32.64;25.19336;95725.32;;;;
2022/02/10 10:56:51;;;;;;;4.35;3.1;;;;;;;32.64;25.19336;95725.32;;;;
2022/02/10 10:57:54;;;;;;;4.35;3.1;;;;;;;32.64;25.19336;95725.32;;;;
2022/02/10 10:59:30;;;;;;;4.35;3.1;;;;;;;32.64;25.19336;95725.32;;;;
2022/02/10 11:23:06;;;;;;;5.15;2.8;;;;;;;31.98;24.69043;95704.78;;;;
2022/02/10 11:26:34;;;;;;;5.15;2.8;;;;;;;31.98;24.69043;95704.78;;;;
2022/02/10 11:38:08;;;;;;;4.650001;3.2;;;;;;;30.23;25.32129;95668.85;;;;
2022/02/10 11:39:18;;;;;;;4.650001;3.2;;;;;;;30.23;25.32129;95668.85;;;;
2022/02/10 11:40:22;;;;;;;4.650001;3.2;;;;;;;30.23;25.32129;95668.85;;;;
2022/02/10 11:41:33;;;;;;;4.650001;3.2;;;;;;;30.23;25.32129;95668.85;;;;
2022/02/10 11:42:50;;;;;;;4.650001;3.2;;;;;;;30.23;25.32129;95668.85;;;;
2022/02/10 11:44:20;;;;;;;4.650001;3.2;;;;;;;30.23;25.32129;95668.85;;;;
2022/02/10 12:30:02;;;;;;;3.35;2.8;;;;;;;24.07;27.82031;95638.17;;;;
2022/02/10 12:32:11;;;;;;;4.750001;3;;;;;;;23.88;27.96484;95616.77;;;;
2022/02/10 12:42:32;;;;;;;5.300001;3.1;;;;;;;21.82;28.92676;95614.25;;;;
2022/02/10 13:31:21;;;;;;;5.550002;3.2;;;;;;;18.49;32.5957;95576.71;;;;
2022/02/10 13:33:48;;;;;;;5.550002;3.2;;;;;;;18.49;32.5957;95576.71;;;;
2022/02/10 14:09:10;;;;;;;3.8;3.1;;;;;;;15.89;36.33789;95558.2;;;;
2022/02/10 14:15:32;;;;;;;5.25;3.1;;;;;;;15.09;37.60645;95573.71;;;;
2022/02/10 14:16:37;;;;;;;4.85;3.4;;;;;;;15.33;37.86719;95575.56;;;;
2022/02/10 14:17:47;;;;;;;4.85;3.4;;;;;;;15.33;37.86719;95575.56;;;;
2022/02/10 14:18:54;;;;;;;4.85;3.4;;;;;;;15.33;37.86719;95575.56;;;;
2022/02/10 14:19:59;;;;;;;4.85;3.4;;;;;;;15.33;37.86719;95575.56;;;;
2022/02/10 14:21:05;;;;;;;4.85;3.4;;;;;;;15.33;37.86719;95575.56;;;;
2022/02/10 14:22:10;;;;;;;4.85;3.4;;;;;;;15.33;37.86719;95575.56;;;;
2022/02/10 14:25:39;;;;;;;4.85;3.4;;;;;;;15.33;37.86719;95575.56;;;;
2022/02/10 14:26:47;;;;;;;4.85;3.4;;;;;;;15.33;37.86719;95575.56;;;;
2022/02/10 14:27:47;;;;;;;4.15;3;;;;;;;14.71;38.86133;95569.33;;;;
2022/02/10 14:28:48;;;;;;;4.15;3;;;;;;;14.71;38.86133;95569.33;;;;
2022/02/10 14:29:49;;;;;;;4.15;3;;;;;;;14.71;38.86133;95569.33;;;;
2022/02/10 14:30:50;;;;;;;4.15;3;;;;;;;14.71;38.86133;95569.33;;;;
2022/02/10 14:31:53;;;;;;;4.15;3;;;;;;;14.71;38.86133;95569.33;;;;
2022/02/10 14:32:57;;;;;;;4.15;3;;;;;;;14.71;38.86133;95569.33;;;;
2022/02/10 14:33:58;;;;;;;4.15;3;;;;;;;14.71;38.86133;95569.33;;;;
2022/02/10 14:35:08;;;;;;;4.15;3;;;;;;;14.71;38.86133;95569.33;;;;
2022/02/10 14:36:13;;;;;;;4.15;3;;;;;;;14.71;38.86133;95569.33;;;;
2022/02/10 14:37:26;;;;;;;4.15;3;;;;;;;14.71;38.86133;95569.33;;;;
2022/02/10 14:38:42;;;;;;;7.3;3.45;;;;;;;14.41;39.56641;95572.48;;;;
2022/02/10 14:40:08;;;;;;;7.3;3.45;;;;;;;14.41;39.56641;95572.48;;;;
2022/02/10 14:41:34;;;;;;;7.3;3.45;;;;;;;14.41;39.56641;95572.48;;;;
2022/02/10 14:43:01;;;;;;;7.3;3.45;;;;;;;14.41;39.56641;95572.48;;;;
2022/02/10 15:16:23;;;;;;;4.649999;3.35;;;;;;;13.64;41.36914;95548.15;;;;
2022/02/10 15:18:25;;;;;;;4.649999;3.35;;;;;;;13.64;41.36914;95548.15;;;;
2022/02/10 15:46:52;;;;;;;5.6;3.3;;;;;;;11.68;43.61035;95544.8;;;;
2022/02/10 15:53:26;;;;;;;4.85;3.45;;;;;;;11.28;44.22949;95547.47;;;;
2022/02/10 15:54:48;;;;;;;4.85;3.45;;;;;;;11.28;44.22949;95547.47;;;;
2022/02/10 15:56:11;;;;;;;4.85;3.45;;;;;;;11.28;44.22949;95547.47;;;;
2022/02/10 16:10:59;;;;;;;4.6;3.65;;;;;;;10.91;45.03613;95553.05;;;;
2022/02/10 16:17:04;;;;;;;5.9;3.7;;;;;;;10.57;45.61426;95544.41;;;;
2022/02/10 16:18:08;;;;;;;5.9;3.7;;;;;;;10.57;45.61426;95544.41;;;;
2022/02/10 16:19:09;;;;;;;5.9;3.7;;;;;;;10.57;45.61426;95544.41;;;;
2022/02/10 16:20:16;;;;;;;5.9;3.7;;;;;;;10.57;45.61426;95544.41;;;;
2022/02/10 16:21:19;;;;;;;5.9;3.7;;;;;;;10.57;45.61426;95544.41;;;;
2022/02/10 16:22:25;;;;;;;5.9;3.7;;;;;;;10.57;45.61426;95544.41;;;;
2022/02/10 16:23:29;;;;;;;5.9;3.7;;;;;;;10.57;45.61426;95544.41;;;;
2022/02/10 16:24:31;;;;;;;6.849999;3.8;;;;;;;10.11;46.31055;95544.08;;;;
2022/02/10 16:25:33;;;;;;;6.849999;3.8;;;;;;;10.11;46.31055;95544.08;;;;
2022/02/10 16:26:42;;;;;;;6.849999;3.8;;;;;;;10.11;46.31055;95544.08;;;;
2022/02/10 16:27:50;;;;;;;6.849999;3.8;;;;;;;10.11;46.31055;95544.08;;;;
2022/02/10 16:28:50;;;;;;;6.849999;3.8;;;;;;;10.11;46.31055;95544.08;;;;
2022/02/10 16:29:53;;;;;;;6.849999;3.8;;;;;;;10.11;46.31055;95544.08;;;;
2022/02/10 16:30:55;;;;;;;6.849999;3.8;;;;;;;10.11;46.31055;95544.08;;;;
2022/02/10 16:31:57;;;;;;;6.849999;3.8;;;;;;;10.11;46.31055;95544.08;;;;
2022/02/10 16:32:58;;;;;;;6.849999;3.8;;;;;;;10.11;46.31055;95544.08;;;;
2022/02/10 16:33:58;;;;;;;6.849999;3.8;;;;;;;10.11;46.31055;95544.08;;;;
2022/02/10 16:35:01;;;;;;;6.849999;3.8;;;;;;;10.11;46.31055;95544.08;;;;
2022/02/10 16:36:04;;;;;;;6.550001;4.25;;;;;;;9.79;47.08398;95538.51;;;;
2022/02/10 16:37:07;;;;;;;6.550001;4.25;;;;;;;9.79;47.08398;95538.51;;;;
2022/02/10 16:38:08;;;;;;;6.550001;4.25;;;;;;;9.79;47.08398;95538.51;;;;
2022/02/10 16:39:09;;;;;;;6.550001;4.25;;;;;;;9.79;47.08398;95538.51;;;;
2022/02/10 16:40:09;;;;;;;6.550001;4.25;;;;;;;9.79;47.08398;95538.51;;;;
2022/02/10 16:41:11;;;;;;;6.550001;4.25;;;;;;;9.79;47.08398;95538.51;;;;
2022/02/10 16:42:14;;;;;;;6.550001;4.25;;;;;;;9.79;47.08398;95538.51;;;;
2022/02/10 16:43:16;;;;;;;6.550001;4.25;;;;;;;9.79;47.08398;95538.51;;;;
2022/02/10 16:44:16;;;;;;;6.550001;4.25;;;;;;;9.79;47.08398;95538.51;;;;
2022/02/10 16:45:17;;;;;;;6.550001;4.25;;;;;;;9.79;47.08398;95538.51;;;;
2022/02/10 16:46:18;;;;;;;6;4;;;;;;;9.52;47.63574;95539.46;;;;
2022/02/10 16:47:18;;;;;;;6;4;;;;;;;9.52;47.63574;95539.46;;;;
2022/02/10 16:48:20;;;;;;;6;4;;;;;;;9.52;47.63574;95539.46;;;;
2022/02/10 16:49:22;;;;;;;6;4;;;;;;;9.52;47.63574;95539.46;;;;
2022/02/10 16:50:23;;;;;;;6;4;;;;;;;9.52;47.63574;95539.46;;;;
2022/02/10 16:51:25;;;;;;;6;4;;;;;;;9.52;47.63574;95539.46;;;;
2022/02/10 16:52:32;;;;;;;6;4;;;;;;;9.52;47.63574;95539.46;;;;
2022/02/10 16:53:32;;;;;;;6;4;;;;;;;9.52;47.63574;95539.46;;;;
2022/02/10 16:54:38;;;;;;;6;4;;;;;;;9.52;47.63574;95539.46;;;;
2022/02/10 16:55:45;;;;;;;6;4;;;;;;;9.52;47.63574;95539.46;;;;
2022/02/10 16:56:58;;;;;;;6;4;;;;;;;9.52;47.63574;95539.46;;;;
2022/02/10 16:58:10;;;;;;;6;4;;;;;;;9.52;47.63574;95539.46;;;;
2022/02/10 16:59:25;;;;;;;6;4;;;;;;;9.52;47.63574;95539.46;;;;
2022/02/10 17:01:03;;;;;;;6;4;;;;;;;9.52;47.63574;95539.46;;;;
2022/02/10 17:02:20;;;;;;;6;4;;;;;;;9.52;47.63574;95539.46;;;;
2022/02/10 17:03:32;;;;;;;6;4;;;;;;;9.52;47.63574;95539.46;;;;
2022/02/10 17:20:13;;;;;;;5.6;4.25;;;;;;;8.59;49.42285;95561.04;;;;
2022/02/10 17:21:27;;;;;;;5.6;4.25;;;;;;;8.59;49.42285;95561.04;;;;
2022/02/10 17:27:30;;;;;;;5.6;4.25;;;;;;;8.59;49.42285;95561.04;;;;
2022/02/10 17:28:31;;;;;;;6.95;4.35;;;;;;;8.34;49.9209;95556.95;;;;
2022/02/10 17:29:38;;;;;;;6.95;4.35;;;;;;;8.34;49.9209;95556.95;;;;
2022/02/10 17:34:26;;;;;;;6.95;4.35;;;;;;;8.34;49.9209;95556.95;;;;
2022/02/10 17:35:49;;;;;;;6.95;4.35;;;;;;;8.34;49.9209;95556.95;;;;
2022/02/10 17:37:04;;;;;;;6.95;4.35;;;;;;;8.34;49.9209;95556.95;;;;
2022/02/10 17:53:44;;;;;;;7.45;4.75;;;;;;;7.95;50.88184;95567.88;;;;
2022/02/10 17:54:44;;;;;;;7.45;4.75;;;;;;;7.95;50.88184;95567.88;;;;
2022/02/10 17:55:46;;;;;;;7.45;4.75;;;;;;;7.95;50.88184;95567.88;;;;
2022/02/10 17:56:48;;;;;;;7.45;4.75;;;;;;;7.95;50.88184;95567.88;;;;
2022/02/10 17:57:49;;;;;;;7.45;4.75;;;;;;;7.95;50.88184;95567.88;;;;
2022/02/10 17:58:50;;;;;;;7.45;4.75;;;;;;;7.95;50.88184;95567.88;;;;
2022/02/10 17:59:50;;;;;;;7.45;4.75;;;;;;;7.95;50.88184;95567.88;;;;
2022/02/10 18:00:51;;;;;;;10.7;5.1;;;;;;;7.63;51.42188;95581.28;;;;
2022/02/10 18:01:53;;;;;;;10.7;5.1;;;;;;;7.63;51.42188;95581.28;;;;
2022/02/10 18:02:55;;;;;;;10.7;5.1;;;;;;;7.63;51.42188;95581.28;;;;
2022/02/10 18:03:56;;;;;;;10.7;5.1;;;;;;;7.63;51.42188;95581.28;;;;
2022/02/10 18:05:00;;;;;;;10.7;5.1;;;;;;;7.63;51.42188;95581.28;;;;
2022/02/10 18:06:39;;;;;;;10.7;5.1;;;;;;;7.63;51.42188;95581.28;;;;
2022/02/10 18:07:41;;;;;;;10.7;5.1;;;;;;;7.63;51.42188;95581.28;;;;
2022/02/10 18:08:46;;;;;;;10.7;5.1;;;;;;;7.63;51.42188;95581.28;;;;
2022/02/10 18:15:03;;;;;;;8.049999;5.25;;;;;;;7.41;52.60449;95610.8;;;;
2022/02/10 18:16:10;;;;;;;8.049999;5.25;;;;;;;7.41;52.60449;95610.8;;;;
2022/02/10 18:17:17;;;;;;;8.049999;5.25;;;;;;;7.41;52.60449;95610.8;;;;
2022/02/10 18:18:23;;;;;;;8.049999;5.25;;;;;;;7.41;52.60449;95610.8;;;;
2022/02/10 18:19:27;;;;;;;8.049999;5.25;;;;;;;7.41;52.60449;95610.8;;;;
2022/02/10 18:20:34;;;;;;;8.049999;5.25;;;;;;;7.41;52.60449;95610.8;;;;
2022/02/10 18:21:55;;;;;;;8.049999;5.25;;;;;;;7.41;52.60449;95610.8;;;;
2022/02/10 18:23:04;;;;;;;8.35;5.849999;;;;;;;7.08;53.08691;95631.03;;;;
2022/02/10 18:24:20;;;;;;;8.35;5.849999;;;;;;;7.08;53.08691;95631.03;;;;
2022/02/10 18:25:30;;;;;;;8.35;5.849999;;;;;;;7.08;53.08691;95631.03;;;;
2022/02/10 18:26:45;;;;;;;8.35;5.849999;;;;;;;7.08;53.08691;95631.03;;;;
2022/02/10 18:28:00;;;;;;;8.35;5.849999;;;;;;;7.08;53.08691;95631.03;;;;
2022/02/10 18:29:04;;;;;;;8.35;5.849999;;;;;;;7.08;53.08691;95631.03;;;;
2022/02/10 18:30:23;;;;;;;8.35;5.849999;;;;;;;7.08;53.08691;95631.03;;;;
2022/02/10 18:38:11;;;;;;;9.1;6.249999;;;;;;;6.65;53.87793;95637.27;;;;